Nymore, Minnesota
Current Conditions -  °F | °C
As of 4:33 PM on Monday 20 Oct 2014 (Local Time) from KBJI Reporting Station
Clear Clear  
Wind Chill: 51°   Ceiling: Unl
Heat Index: 51°   Visibility: 10mi
Dew Point: 38°   Wind: 7mph
Humidity: 61%   Direction: 350°N
Pressure: 30.04"   Gusts: NA
Location:  47.5271°N, 94.7611°W
Report Text: KBJI 202133Z AUTO 35006KT 10SM CLR 11/04 A3004 RMK AO2 T01080036
Loading
Personal Weather Stations






























Interactive Weather Map
Tropical Storm Tracking
New forecast layout! Learn more

10-Day Weather Forecast

Advertisements
Track Severe Weather on mobile